Time;durP1;ratioP1;P1;durP2;ratioP2;P2;SDS_P1;SDS_P2;PMS_P1;PMS_P2;Temp;Humidity;BMP_temperature;BMP_pressure;BME280_temperature;BME280_humidity;BME280_pressure;Samples;Min_cycle;Max_cycle;Signal;HPM_P1;HPM_P2
2021/08/13 00:00:06;;;;;;;7.80;7.10;;;;;;;;;;5052282;28;20613;-76
2021/08/13 00:02:32;;;;;;;8.73;6.70;;;;;;;;;;5051958;28;20407;-78
2021/08/13 00:08:01;;;;;;;8.13;7.13;;;;;;;;;;5052086;28;20492;-76
2021/08/13 00:10:27;;;;;;;10.10;7.00;;;;;;;;;;5051837;28;20415;-77
2021/08/13 00:12:53;;;;;;;10.30;7.37;;;;;;;;;;5052136;28;20453;-76
2021/08/13 00:15:19;;;;;;;10.20;7.23;;;;;;;;;;5051475;28;20420;-77
2021/08/13 00:17:45;;;;;;;9.00;8.07;;;;;;;;;;5050746;28;20994;-78
2021/08/13 00:23:14;;;;;;;10.83;7.43;;;;;;;;;;5052099;28;20513;-77
2021/08/13 00:25:40;;;;;;;7.97;7.17;;;;;;;;;;5051799;28;20518;-76
2021/08/13 00:28:06;;;;;;;7.70;7.00;;;;;;;;;;5055422;28;20493;-77
2021/08/13 00:30:33;;;;;;;9.40;7.90;;;;;;;;;;5055476;28;20441;-78
2021/08/13 00:32:59;;;;;;;8.37;7.67;;;;;;;;;;5055269;28;20545;-79
2021/08/13 00:35:25;;;;;;;7.80;6.87;;;;;;;;;;5055194;28;20470;-78
2021/08/13 00:37:51;;;;;;;11.40;7.93;;;;;;;;;;5054182;28;20847;-78
2021/08/13 00:40:17;;;;;;;9.20;8.30;;;;;;;;;;5055137;28;20441;-78
2021/08/13 00:42:43;;;;;;;8.47;7.57;;;;;;;;;;5055216;28;20411;-78
2021/08/13 00:45:09;;;;;;;10.70;8.23;;;;;;;;;;5055167;28;20808;-78
2021/08/13 00:47:35;;;;;;;8.57;7.70;;;;;;;;;;5055127;28;20505;-77
2021/08/13 00:53:06;;;;;;;9.30;8.00;;;;;;;;;;5055187;28;20457;-77
2021/08/13 00:55:32;;;;;;;9.87;8.30;;;;;;;;;;5054970;28;20411;-76
2021/08/13 00:57:58;;;;;;;9.17;7.63;;;;;;;;;;5053160;28;20415;-77
2021/08/13 01:00:25;;;;;;;7.73;6.93;;;;;;;;;;5054985;28;20411;-78
2021/08/13 01:02:51;;;;;;;9.40;7.40;;;;;;;;;;5053512;28;20478;-79
2021/08/13 01:08:20;;;;;;;8.70;7.90;;;;;;;;;;5054649;28;20539;-77
2021/08/13 01:10:49;;;;;;;9.00;7.40;;;;;;;;;;5054622;28;20422;-76
2021/08/13 01:13:32;;;;;;;10.60;7.60;;;;;;;;;;5054744;28;20484;-76
2021/08/13 01:16:00;;;;;;;9.53;8.03;;;;;;;;;;5054666;28;20484;-77
2021/08/13 01:18:33;;;;;;;8.33;7.53;;;;;;;;;;5054475;28;20422;-76
2021/08/13 01:21:12;;;;;;;9.30;8.30;;;;;;;;;;5054656;28;20770;-76
2021/08/13 01:23:39;;;;;;;8.57;7.77;;;;;;;;;;5054478;28;20886;-75
2021/08/13 01:26:06;;;;;;;8.37;7.57;;;;;;;;;;5054451;28;20434;-78
2021/08/13 01:28:38;;;;;;;8.93;8.13;;;;;;;;;;5054284;28;20528;-77
2021/08/13 01:31:09;;;;;;;10.23;7.60;;;;;;;;;;5054447;28;20907;-77
2021/08/13 01:39:25;;;;;;;8.70;7.80;;;;;;;;;;5053044;28;20417;-77
2021/08/13 01:41:52;;;;;;;11.63;7.87;;;;;;;;;;5052853;28;20829;-77
2021/08/13 01:44:18;;;;;;;7.77;6.93;;;;;;;;;;5052844;28;20765;-78
2021/08/13 01:46:44;;;;;;;9.83;6.90;;;;;;;;;;5053941;28;20509;-77
2021/08/13 01:49:11;;;;;;;8.53;7.73;;;;;;;;;;5053787;28;20471;-76
2021/08/13 01:51:37;;;;;;;7.53;6.77;;;;;;;;;;5053951;28;20541;-76
2021/08/13 01:54:04;;;;;;;7.47;6.43;;;;;;;;;;5053412;28;20481;-77
2021/08/13 01:56:30;;;;;;;7.83;6.87;;;;;;;;;;5053779;28;20411;-75
2021/08/13 01:58:56;;;;;;;7.40;6.53;;;;;;;;;;5053798;28;20418;-77
2021/08/13 02:01:23;;;;;;;10.57;7.50;;;;;;;;;;5053236;28;20442;-76
2021/08/13 02:03:49;;;;;;;8.37;7.57;;;;;;;;;;5053174;28;20502;-78
2021/08/13 02:09:19;;;;;;;9.63;7.70;;;;;;;;;;5053199;28;20880;-77
2021/08/13 02:11:45;;;;;;;8.40;7.50;;;;;;;;;;5052389;28;20437;-78
2021/08/13 02:14:11;;;;;;;9.20;7.70;;;;;;;;;;5053528;28;20504;-77
2021/08/13 02:16:39;;;;;;;7.80;7.10;;;;;;;;;;5053381;28;21052;-77
2021/08/13 02:19:05;;;;;;;8.40;7.60;;;;;;;;;;5053532;28;20415;-78
2021/08/13 02:24:34;;;;;;;10.33;7.17;;;;;;;;;;5053122;28;20422;-78
2021/08/13 02:27:01;;;;;;;12.20;7.83;;;;;;;;;;5053545;28;20776;-78
2021/08/13 02:29:27;;;;;;;8.57;7.67;;;;;;;;;;5053513;28;20806;-78
2021/08/13 02:31:54;;;;;;;9.43;7.63;;;;;;;;;;5053065;28;20842;-77
2021/08/13 02:40:32;;;;;;;8.73;7.93;;;;;;;;;;5052880;28;20441;-77
2021/08/13 02:43:03;;;;;;;11.27;8.70;;;;;;;;;;5053091;28;20438;-77
2021/08/13 02:45:30;;;;;;;11.73;7.97;;;;;;;;;;5053034;28;20423;-78
2021/08/13 02:47:58;;;;;;;9.43;7.43;;;;;;;;;;5052405;28;20461;-78
2021/08/13 02:50:25;;;;;;;24.60;10.53;;;;;;;;;;5052478;28;20423;-78
2021/08/13 02:52:53;;;;;;;12.03;9.90;;;;;;;;;;5052891;28;20407;-78
2021/08/13 02:55:26;;;;;;;9.13;8.30;;;;;;;;;;5052649;28;20415;-78
2021/08/13 02:57:53;;;;;;;10.07;7.40;;;;;;;;;;5051354;28;20411;-76
2021/08/13 03:00:20;;;;;;;8.87;7.83;;;;;;;;;;5052734;28;20898;-78
2021/08/13 03:02:47;;;;;;;12.50;7.87;;;;;;;;;;5052541;28;20415;-77
2021/08/13 03:05:13;;;;;;;10.20;8.37;;;;;;;;;;5051371;28;20438;-78
2021/08/13 03:07:40;;;;;;;10.33;7.80;;;;;;;;;;5051334;28;20486;-78
2021/08/13 03:10:07;;;;;;;8.70;7.60;;;;;;;;;;5052490;28;20502;-77
2021/08/13 03:12:33;;;;;;;8.17;7.33;;;;;;;;;;5052590;28;20830;-78
2021/08/13 03:15:00;;;;;;;9.27;8.30;;;;;;;;;;5052633;28;20443;-78
2021/08/13 03:17:26;;;;;;;11.20;8.10;;;;;;;;;;5052347;28;20452;-78
2021/08/13 03:19:53;;;;;;;12.50;8.20;;;;;;;;;;5051947;28;20411;-78
2021/08/13 03:22:20;;;;;;;9.67;7.77;;;;;;;;;;5052485;28;20429;-77
2021/08/13 03:24:46;;;;;;;7.97;7.27;;;;;;;;;;5052252;28;20411;-78
2021/08/13 03:27:12;;;;;;;9.73;8.00;;;;;;;;;;5052263;28;20430;-78
2021/08/13 03:29:38;;;;;;;10.50;7.50;;;;;;;;;;5052494;28;20568;-78
2021/08/13 03:32:04;;;;;;;9.37;8.33;;;;;;;;;;5052393;28;20801;-78
2021/08/13 03:34:31;;;;;;;11.00;8.50;;;;;;;;;;5052287;28;20474;-78
2021/08/13 03:40:00;;;;;;;9.00;8.10;;;;;;;;;;5052262;28;20510;-78
2021/08/13 03:42:26;;;;;;;9.60;8.53;;;;;;;;;;5052351;28;20506;-79
2021/08/13 03:44:52;;;;;;;8.60;7.80;;;;;;;;;;5052193;28;20415;-78
2021/08/13 03:47:18;;;;;;;8.60;7.80;;;;;;;;;;5052312;28;20772;-79
2021/08/13 03:49:44;;;;;;;10.27;8.50;;;;;;;;;;5052173;28;20462;-80
2021/08/13 03:55:14;;;;;;;10.10;7.23;;;;;;;;;;5052010;28;20489;-78
2021/08/13 03:57:40;;;;;;;9.30;8.20;;;;;;;;;;5052170;28;20415;-77
2021/08/13 04:00:07;;;;;;;9.70;8.30;;;;;;;;;;5052323;28;20418;-78
2021/08/13 04:02:33;;;;;;;8.57;7.67;;;;;;;;;;5055037;28;20818;-78
2021/08/13 04:04:59;;;;;;;9.50;7.97;;;;;;;;;;5056310;28;20457;-78
2021/08/13 04:10:28;;;;;;;9.43;8.00;;;;;;;;;;5055519;28;20421;-77
2021/08/13 04:12:54;;;;;;;11.00;8.67;;;;;;;;;;5055948;28;20506;-78
2021/08/13 04:15:20;;;;;;;9.37;8.57;;;;;;;;;;5055965;28;20439;-78
2021/08/13 04:17:47;;;;;;;9.70;8.70;;;;;;;;;;5055687;28;20781;-78
2021/08/13 04:20:14;;;;;;;9.67;8.40;;;;;;;;;;5055842;28;20423;-78
2021/08/13 04:25:44;;;;;;;9.13;8.30;;;;;;;;;;5055465;28;20441;-79
2021/08/13 04:28:09;;;;;;;13.73;9.43;;;;;;;;;;5055318;28;20506;-79
2021/08/13 04:30:36;;;;;;;10.17;8.30;;;;;;;;;;5055649;28;20815;-77
2021/08/13 04:33:07;;;;;;;9.50;8.70;;;;;;;;;;5055809;28;20786;-78
2021/08/13 04:35:33;;;;;;;9.43;8.40;;;;;;;;;;5055558;28;20470;-77
2021/08/13 04:41:02;;;;;;;12.67;9.20;;;;;;;;;;5055172;28;20845;-78
2021/08/13 04:43:28;;;;;;;9.87;8.83;;;;;;;;;;5054448;28;20470;-79
2021/08/13 04:45:54;;;;;;;12.90;8.70;;;;;;;;;;5055122;28;20438;-79
2021/08/13 04:48:20;;;;;;;9.27;8.23;;;;;;;;;;5055301;28;20470;-78
2021/08/13 04:50:46;;;;;;;10.80;9.53;;;;;;;;;;5053946;28;20449;-78
2021/08/13 04:56:15;;;;;;;14.93;8.77;;;;;;;;;;5054584;28;20464;-77
2021/08/13 04:58:41;;;;;;;12.87;9.80;;;;;;;;;;5054655;28;20414;-78
2021/08/13 05:01:07;;;;;;;16.80;10.20;;;;;;;;;;5055131;28;20425;-78
2021/08/13 05:03:33;;;;;;;10.67;9.33;;;;;;;;;;5054927;28;20434;-78
2021/08/13 05:05:59;;;;;;;14.00;9.93;;;;;;;;;;5054916;28;20757;-78
2021/08/13 05:11:29;;;;;;;13.03;9.33;;;;;;;;;;5053649;28;20468;-77
2021/08/13 05:13:55;;;;;;;10.57;9.53;;;;;;;;;;5053797;28;20832;-78
2021/08/13 05:16:21;;;;;;;11.90;9.50;;;;;;;;;;5054709;28;20407;-78
2021/08/13 05:18:47;;;;;;;17.80;10.87;;;;;;;;;;5054460;28;20922;-78
2021/08/13 05:21:13;;;;;;;17.00;9.43;;;;;;;;;;5054853;28;20477;-77
2021/08/13 05:26:42;;;;;;;9.80;8.80;;;;;;;;;;5054432;28;20445;-79
2021/08/13 05:29:08;;;;;;;18.83;9.80;;;;;;;;;;5054482;28;20466;-80
2021/08/13 05:31:34;;;;;;;14.43;10.17;;;;;;;;;;5054432;28;20415;-78
2021/08/13 05:34:00;;;;;;;13.60;9.80;;;;;;;;;;5054698;28;20427;-77
2021/08/13 05:36:27;;;;;;;18.33;10.50;;;;;;;;;;5053767;28;20477;-76
2021/08/13 05:41:56;;;;;;;15.40;10.87;;;;;;;;;;5053964;28;20526;-79
2021/08/13 05:44:22;;;;;;;15.40;9.97;;;;;;;;;;5054226;28;20445;-80
2021/08/13 05:46:48;;;;;;;11.73;10.53;;;;;;;;;;5054377;28;20422;-77
2021/08/13 05:49:14;;;;;;;11.43;9.60;;;;;;;;;;5052610;28;20557;-79
2021/08/13 05:51:40;;;;;;;12.10;10.60;;;;;;;;;;5053057;28;20530;-78
2021/08/13 05:54:06;;;;;;;16.13;11.67;;;;;;;;;;5053371;28;20457;-77
2021/08/13 05:56:32;;;;;;;21.53;11.70;;;;;;;;;;5054176;28;20905;-78
2021/08/13 05:59:00;;;;;;;16.07;11.07;;;;;;;;;;5054307;28;20430;-79
2021/08/13 06:01:27;;;;;;;21.73;11.17;;;;;;;;;;5053219;28;20497;-77
2021/08/13 06:03:53;;;;;;;18.63;10.30;;;;;;;;;;5053508;28;20469;-77
2021/08/13 06:06:19;;;;;;;14.60;10.60;;;;;;;;;;5053002;28;20437;-79
2021/08/13 06:11:48;;;;;;;15.60;9.70;;;;;;;;;;5052750;28;20481;-79
2021/08/13 06:14:14;;;;;;;12.60;10.50;;;;;;;;;;5053043;28;20411;-79
2021/08/13 06:16:40;;;;;;;15.67;10.97;;;;;;;;;;5053128;28;20476;-78
2021/08/13 06:19:07;;;;;;;11.40;10.20;;;;;;;;;;5051558;28;20418;-77
2021/08/13 06:21:33;;;;;;;15.63;9.73;;;;;;;;;;5052508;28;20426;-78
2021/08/13 06:27:02;;;;;;;13.43;9.33;;;;;;;;;;5052775;28;20936;-77
2021/08/13 06:29:28;;;;;;;24.33;9.43;;;;;;;;;;5052687;28;20474;-78
2021/08/13 06:31:54;;;;;;;12.50;9.10;;;;;;;;;;5051932;28;20415;-78
2021/08/13 06:34:20;;;;;;;15.57;8.77;;;;;;;;;;5052067;28;20423;-77
2021/08/13 06:36:46;;;;;;;14.63;9.67;;;;;;;;;;5050221;28;20466;-78
2021/08/13 06:42:16;;;;;;;11.90;9.03;;;;;;;;;;5051392;28;20468;-77
2021/08/13 06:44:42;;;;;;;15.63;9.23;;;;;;;;;;5052480;28;20411;-77
2021/08/13 06:47:08;;;;;;;10.93;9.90;;;;;;;;;;5052551;28;20422;-77
2021/08/13 06:49:34;;;;;;;9.23;8.27;;;;;;;;;;5051715;28;20829;-78
2021/08/13 06:52:02;;;;;;;9.33;8.43;;;;;;;;;;5052357;28;20419;-77
2021/08/13 06:57:31;;;;;;;8.43;7.63;;;;;;;;;;5052295;28;20418;-76
2021/08/13 06:59:57;;;;;;;8.83;8.03;;;;;;;;;;5052072;28;20461;-78
2021/08/13 07:02:23;;;;;;;8.77;7.97;;;;;;;;;;5052150;28;20419;-77
2021/08/13 07:04:49;;;;;;;7.20;6.57;;;;;;;;;;5047688;28;20407;-77
2021/08/13 07:07:15;;;;;;;7.30;6.60;;;;;;;;;;5051178;28;20956;-75
2021/08/13 07:12:45;;;;;;;7.80;6.30;;;;;;;;;;5050955;28;20779;-81
2021/08/13 07:15:11;;;;;;;7.60;7.00;;;;;;;;;;5051848;28;20411;-80
2021/08/13 07:17:38;;;;;;;8.13;5.67;;;;;;;;;;5051841;28;20982;-81
2021/08/13 07:20:05;;;;;;;6.43;5.00;;;;;;;;;;5049433;28;20762;-80
2021/08/13 07:22:32;;;;;;;6.63;6.13;;;;;;;;;;5050528;28;20580;-78
2021/08/13 07:28:01;;;;;;;6.50;5.77;;;;;;;;;;5050384;28;20520;-78
2021/08/13 07:30:28;;;;;;;6.20;5.60;;;;;;;;;;5050094;28;20427;-75
2021/08/13 07:32:54;;;;;;;7.77;6.93;;;;;;;;;;5048106;28;20945;-81
2021/08/13 07:35:20;;;;;;;9.67;6.13;;;;;;;;;;5050795;28;20470;-81
2021/08/13 07:37:46;;;;;;;8.33;5.80;;;;;;;;;;5054385;28;20923;-78
2021/08/13 07:43:15;;;;;;;6.30;5.43;;;;;;;;;;5055054;28;20433;-81
2021/08/13 07:45:42;;;;;;;5.43;4.93;;;;;;;;;;5054982;28;20445;-81
2021/08/13 07:48:08;;;;;;;5.67;4.87;;;;;;;;;;5054991;28;20505;-80
2021/08/13 07:50:34;;;;;;;6.13;4.90;;;;;;;;;;5054860;28;20447;-81
2021/08/13 07:53:00;;;;;;;4.97;4.47;;;;;;;;;;5053843;28;20422;-83
2021/08/13 07:58:29;;;;;;;4.63;3.97;;;;;;;;;;5054402;28;20452;-83
2021/08/13 08:00:55;;;;;;;6.20;4.53;;;;;;;;;;5054237;28;20516;-83
2021/08/13 08:03:21;;;;;;;5.93;4.70;;;;;;;;;;5055161;28;20919;-81
2021/08/13 08:05:47;;;;;;;5.80;4.20;;;;;;;;;;5054414;28;20414;-82
2021/08/13 08:14:01;;;;;;;6.20;4.77;;;;;;;;;;5054057;28;20581;-80
2021/08/13 08:16:27;;;;;;;4.93;3.80;;;;;;;;;;5054577;28;20419;-83
2021/08/13 08:18:53;;;;;;;4.97;4.00;;;;;;;;;;5053201;28;20925;-82
2021/08/13 08:21:19;;;;;;;5.97;3.90;;;;;;;;;;5054049;28;20883;-83
2021/08/13 08:23:45;;;;;;;5.77;3.97;;;;;;;;;;5052740;28;20447;-82
2021/08/13 08:26:11;;;;;;;6.60;4.23;;;;;;;;;;5054347;28;20425;-83
2021/08/13 08:28:42;;;;;;;5.53;4.63;;;;;;;;;;5053930;28;20474;-82
2021/08/13 08:31:08;;;;;;;5.57;4.23;;;;;;;;;;5054108;28;20468;-82
2021/08/13 08:33:34;;;;;;;8.47;5.07;;;;;;;;;;5053845;28;20934;-81
2021/08/13 08:36:01;;;;;;;5.17;4.40;;;;;;;;;;5053851;28;20470;-83
2021/08/13 08:38:27;;;;;;;6.70;4.20;;;;;;;;;;5053831;28;20909;-83
2021/08/13 08:43:56;;;;;;;5.13;4.63;;;;;;;;;;5053484;28;20422;-81
2021/08/13 08:46:24;;;;;;;7.37;5.57;;;;;;;;;;5053445;28;20430;-80
2021/08/13 08:48:52;;;;;;;8.10;5.40;;;;;;;;;;5053443;28;20470;-80
2021/08/13 08:51:18;;;;;;;6.33;4.23;;;;;;;;;;5053463;28;20449;-76
2021/08/13 08:53:51;;;;;;;6.30;5.70;;;;;;;;;;5053679;28;20423;-81
2021/08/13 08:56:18;;;;;;;7.77;4.87;;;;;;;;;;5053563;28;20415;-81
2021/08/13 08:58:45;;;;;;;8.10;5.07;;;;;;;;;;5053715;28;20788;-81
2021/08/13 09:01:12;;;;;;;7.53;5.03;;;;;;;;;;5053507;28;20407;-75
2021/08/13 09:03:38;;;;;;;9.07;5.10;;;;;;;;;;5053441;28;20533;-78
2021/08/13 09:06:04;;;;;;;5.80;5.03;;;;;;;;;;5053328;28;20456;-82
2021/08/13 09:08:31;;;;;;;6.57;4.97;;;;;;;;;;5053068;28;20467;-82
2021/08/13 09:14:01;;;;;;;5.37;4.87;;;;;;;;;;5053187;28;20410;-80
2021/08/13 09:16:27;;;;;;;6.90;5.47;;;;;;;;;;5053089;28;20415;-81
2021/08/13 09:18:58;;;;;;;6.33;5.40;;;;;;;;;;5053133;28;20742;-80
2021/08/13 09:21:24;;;;;;;7.87;5.40;;;;;;;;;;5053413;28;20443;-80
2021/08/13 09:23:52;;;;;;;8.80;4.90;;;;;;;;;;5053155;28;20399;-79
2021/08/13 09:29:21;;;;;;;5.40;4.90;;;;;;;;;;5052722;28;20473;-81
2021/08/13 09:31:51;;;;;;;10.43;6.87;;;;;;;;;;5052765;28;20411;-81
2021/08/13 09:34:26;;;;;;;8.33;5.00;;;;;;;;;;5052569;28;20432;-81
2021/08/13 09:36:53;;;;;;;9.07;5.50;;;;;;;;;;5052036;28;20437;-81
2021/08/13 09:39:29;;;;;;;7.70;6.00;;;;;;;;;;5052705;28;20421;-82
2021/08/13 09:41:56;;;;;;;8.03;6.53;;;;;;;;;;5052606;28;20430;-82
2021/08/13 09:44:26;;;;;;;8.83;6.27;;;;;;;;;;5052473;28;20426;-82
2021/08/13 09:47:09;;;;;;;6.00;5.40;;;;;;;;;;5052370;28;20490;-80
2021/08/13 09:49:36;;;;;;;7.43;5.57;;;;;;;;;;5052409;28;20859;-82
2021/08/13 09:52:15;;;;;;;7.00;5.50;;;;;;;;;;5052443;28;20469;-78
2021/08/13 09:54:41;;;;;;;6.00;4.87;;;;;;;;;;5052609;28;20840;-81
2021/08/13 09:57:08;;;;;;;6.23;5.60;;;;;;;;;;5051852;28;20407;-80
2021/08/13 09:59:34;;;;;;;11.80;6.00;;;;;;;;;;5051583;28;20419;-80
2021/08/13 10:02:09;;;;;;;9.23;5.87;;;;;;;;;;5052477;28;20410;-83
2021/08/13 10:04:36;;;;;;;6.13;5.53;;;;;;;;;;5046295;28;20488;-81
2021/08/13 10:07:02;;;;;;;13.40;6.23;;;;;;;;;;5050832;28;20474;-78
2021/08/13 10:09:29;;;;;;;5.77;5.17;;;;;;;;;;5052207;28;20493;-82
2021/08/13 10:11:59;;;;;;;10.37;6.17;;;;;;;;;;5052297;28;20817;-81
2021/08/13 10:14:29;;;;;;;8.13;6.20;;;;;;;;;;5052170;28;20426;-78
2021/08/13 10:17:12;;;;;;;9.63;5.70;;;;;;;;;;5051943;28;20422;-79
2021/08/13 10:19:39;;;;;;;9.87;5.80;;;;;;;;;;5052197;28;20423;-79
2021/08/13 10:22:06;;;;;;;7.93;6.57;;;;;;;;;;5051899;28;20461;-79
2021/08/13 10:24:32;;;;;;;8.67;6.33;;;;;;;;;;5052057;28;20826;-79
2021/08/13 10:30:01;;;;;;;10.27;6.37;;;;;;;;;;5051916;28;20921;-82
2021/08/13 10:32:27;;;;;;;7.70;6.40;;;;;;;;;;5051603;28;20498;-80
2021/08/13 10:34:55;;;;;;;7.90;6.03;;;;;;;;;;5051413;28;20961;-80
2021/08/13 10:37:24;;;;;;;9.10;6.20;;;;;;;;;;5050309;28;20442;-82
2021/08/13 10:39:51;;;;;;;7.03;5.43;;;;;;;;;;5051366;28;20488;-81
2021/08/13 10:42:18;;;;;;;9.00;5.77;;;;;;;;;;5050991;28;20933;-81
2021/08/13 10:44:47;;;;;;;6.03;5.43;;;;;;;;;;5053010;28;20422;-80
2021/08/13 10:47:15;;;;;;;8.97;6.50;;;;;;;;;;5052921;28;20469;-81
2021/08/13 10:49:44;;;;;;;7.53;6.13;;;;;;;;;;5052960;28;20957;-81
2021/08/13 10:52:10;;;;;;;6.33;5.40;;;;;;;;;;5051688;28;20789;-83
2021/08/13 10:54:40;;;;;;;7.50;6.80;;;;;;;;;;5051409;28;20984;-82
2021/08/13 11:00:10;;;;;;;6.00;5.50;;;;;;;;;;5048697;28;20510;-79
2021/08/13 11:02:36;;;;;;;7.30;6.10;;;;;;;;;;5050144;28;20419;-80
2021/08/13 11:05:02;;;;;;;6.47;5.87;;;;;;;;;;5049829;28;20425;-78
2021/08/13 11:07:47;;;;;;;10.93;5.70;;;;;;;;;;5050914;28;20449;-81
2021/08/13 11:10:31;;;;;;;8.70;6.07;;;;;;;;;;5050189;28;21043;-80
2021/08/13 11:13:10;;;;;;;10.20;8.00;;;;;;;;;;5049890;28;20415;-80
2021/08/13 11:15:36;;;;;;;9.27;8.37;;;;;;;;;;5050064;28;20476;-80
2021/08/13 11:18:22;;;;;;;10.77;8.80;;;;;;;;;;5045968;28;20425;-79
2021/08/13 11:20:48;;;;;;;10.13;7.80;;;;;;;;;;5047027;28;20518;-80
2021/08/13 11:23:14;;;;;;;9.00;7.80;;;;;;;;;;5050211;28;20468;-80
2021/08/13 11:25:50;;;;;;;8.27;7.47;;;;;;;;;;5050881;28;20419;-80
2021/08/13 11:28:21;;;;;;;9.43;8.53;;;;;;;;;;5051445;28;20979;-79
2021/08/13 11:30:48;;;;;;;9.10;7.90;;;;;;;;;;5051855;28;20427;-82
2021/08/13 11:33:26;;;;;;;8.60;6.93;;;;;;;;;;5051694;28;20457;-79
2021/08/13 11:35:53;;;;;;;9.00;7.60;;;;;;;;;;5051394;28;20814;-80
2021/08/13 11:38:51;;;;;;;8.43;7.33;;;;;;;;;;5051894;28;20411;-79
2021/08/13 11:41:23;;;;;;;12.37;7.63;;;;;;;;;;5028554;28;20500;-79
2021/08/13 11:43:50;;;;;;;7.57;6.87;;;;;;;;;;5051460;28;20901;-80
2021/08/13 11:46:32;;;;;;;11.73;7.20;;;;;;;;;;5052405;28;20817;-80
2021/08/13 11:49:02;;;;;;;7.33;6.70;;;;;;;;;;5051291;28;20503;-82
2021/08/13 11:51:29;;;;;;;8.43;7.63;;;;;;;;;;5052398;28;20411;-82
2021/08/13 11:53:55;;;;;;;12.33;8.43;;;;;;;;;;5052339;28;20427;-82
2021/08/13 11:56:31;;;;;;;8.70;7.60;;;;;;;;;;5052053;28;20901;-82
2021/08/13 11:58:58;;;;;;;9.63;7.30;;;;;;;;;;5051901;28;20425;-83
2021/08/13 12:01:24;;;;;;;11.73;8.43;;;;;;;;;;5051027;28;20446;-81
2021/08/13 12:03:52;;;;;;;15.07;7.53;;;;;;;;;;5052644;28;20454;-83
2021/08/13 12:06:18;;;;;;;9.90;8.07;;;;;;;;;;5050234;28;20823;-82
2021/08/13 12:08:45;;;;;;;8.60;7.47;;;;;;;;;;5052043;28;20462;-79
2021/08/13 12:11:11;;;;;;;9.03;8.13;;;;;;;;;;5051968;28;20494;-80
2021/08/13 12:13:37;;;;;;;9.27;7.43;;;;;;;;;;5050835;28;20439;-82
2021/08/13 12:16:04;;;;;;;10.53;8.33;;;;;;;;;;5052474;28;20430;-82
2021/08/13 12:18:30;;;;;;;13.77;8.20;;;;;;;;;;5052067;28;20423;-81
2021/08/13 12:20:56;;;;;;;9.17;8.37;;;;;;;;;;5051923;28;20476;-81
2021/08/13 12:23:22;;;;;;;9.47;7.50;;;;;;;;;;5054706;28;20417;-81
2021/08/13 12:25:48;;;;;;;8.50;7.80;;;;;;;;;;5050791;28;20435;-79
2021/08/13 12:31:18;;;;;;;11.03;7.50;;;;;;;;;;5053891;28;20461;-81
2021/08/13 12:33:52;;;;;;;8.33;7.60;;;;;;;;;;5053767;28;20776;-81
2021/08/13 12:36:18;;;;;;;7.73;7.03;;;;;;;;;;5053425;28;20465;-80
2021/08/13 12:38:44;;;;;;;8.77;7.83;;;;;;;;;;5053649;28;20434;-78
2021/08/13 12:47:18;;;;;;;8.20;7.40;;;;;;;;;;5053654;28;20444;-80
2021/08/13 12:49:45;;;;;;;8.23;7.47;;;;;;;;;;5053465;28;20965;-80
2021/08/13 12:52:15;;;;;;;8.67;7.60;;;;;;;;;;5053898;28;20415;-80
2021/08/13 12:54:42;;;;;;;8.67;7.87;;;;;;;;;;5053648;28;20472;-82
2021/08/13 12:57:12;;;;;;;8.30;7.60;;;;;;;;;;5053218;28;20513;-80
2021/08/13 12:59:39;;;;;;;9.07;8.13;;;;;;;;;;5053706;28;20517;-80
2021/08/13 13:02:05;;;;;;;8.43;7.50;;;;;;;;;;5052304;28;20940;-77
2021/08/13 13:04:38;;;;;;;8.47;7.53;;;;;;;;;;5053359;28;20941;-80
2021/08/13 13:07:05;;;;;;;9.43;7.53;;;;;;;;;;5053075;28;20960;-80
2021/08/13 13:09:32;;;;;;;8.50;7.70;;;;;;;;;;5053082;28;20474;-80
2021/08/13 13:12:17;;;;;;;9.57;8.33;;;;;;;;;;5052757;28;20909;-79
2021/08/13 13:14:43;;;;;;;8.30;7.50;;;;;;;;;;5053388;28;20414;-79
2021/08/13 13:17:10;;;;;;;8.73;7.87;;;;;;;;;;5053271;28;20404;-82
2021/08/13 13:19:36;;;;;;;9.20;8.30;;;;;;;;;;5053013;28;20407;-81
2021/08/13 13:22:19;;;;;;;10.53;8.40;;;;;;;;;;5053004;28;20494;-79
2021/08/13 13:24:45;;;;;;;7.90;7.20;;;;;;;;;;5053256;28;20894;-80
2021/08/13 13:27:11;;;;;;;11.27;8.83;;;;;;;;;;5052349;28;20423;-80
2021/08/13 13:29:39;;;;;;;8.77;7.60;;;;;;;;;;5052720;28;20475;-81
2021/08/13 13:32:31;;;;;;;9.30;8.17;;;;;;;;;;5052930;28;20446;-80
2021/08/13 13:34:58;;;;;;;10.77;8.10;;;;;;;;;;5049784;28;20828;-81
2021/08/13 13:37:24;;;;;;;9.87;8.00;;;;;;;;;;5052601;28;21008;-81
2021/08/13 13:39:50;;;;;;;12.20;8.13;;;;;;;;;;5052981;28;20411;-81
2021/08/13 13:42:29;;;;;;;9.50;8.50;;;;;;;;;;5052226;28;20422;-78
2021/08/13 13:45:05;;;;;;;12.40;8.67;;;;;;;;;;5052595;28;20411;-80
2021/08/13 13:47:31;;;;;;;13.00;7.83;;;;;;;;;;5052853;28;20556;-80
2021/08/13 13:49:57;;;;;;;8.33;7.23;;;;;;;;;;5052376;28;20431;-78
2021/08/13 13:52:23;;;;;;;8.50;7.57;;;;;;;;;;5052410;28;20866;-80
2021/08/13 13:54:49;;;;;;;14.33;8.37;;;;;;;;;;5052553;28;20760;-79
2021/08/13 13:57:15;;;;;;;7.40;6.80;;;;;;;;;;5051959;28;20411;-77
2021/08/13 13:59:41;;;;;;;8.53;7.40;;;;;;;;;;5052579;28;20506;-81
2021/08/13 14:02:07;;;;;;;11.10;7.50;;;;;;;;;;5052345;28;20411;-81
2021/08/13 14:04:33;;;;;;;9.00;7.60;;;;;;;;;;5052178;28;20426;-78
2021/08/13 14:06:59;;;;;;;7.50;6.87;;;;;;;;;;5052527;28;20406;-77
2021/08/13 14:09:25;;;;;;;12.63;7.73;;;;;;;;;;5052412;28;20956;-74
2021/08/13 14:11:51;;;;;;;9.37;7.00;;;;;;;;;;5051976;28;20415;-74
2021/08/13 14:14:17;;;;;;;7.83;7.03;;;;;;;;;;5051912;28;20419;-80
2021/08/13 14:16:43;;;;;;;8.53;7.10;;;;;;;;;;5051831;28;20446;-74
2021/08/13 14:19:10;;;;;;;7.97;7.17;;;;;;;;;;5050859;28;20949;-75
2021/08/13 14:21:36;;;;;;;10.77;6.20;;;;;;;;;;5050404;28;20455;-74
2021/08/13 14:24:02;;;;;;;6.80;6.10;;;;;;;;;;5052029;28;20434;-79
2021/08/13 14:26:28;;;;;;;7.43;6.73;;;;;;;;;;5051636;28;20434;-80
2021/08/13 14:31:57;;;;;;;8.00;6.70;;;;;;;;;;5051681;28;20417;-81
2021/08/13 14:34:23;;;;;;;8.50;7.20;;;;;;;;;;5051914;28;20775;-81
2021/08/13 14:36:49;;;;;;;7.63;6.93;;;;;;;;;;5051656;28;20503;-80
2021/08/13 14:39:15;;;;;;;9.33;7.50;;;;;;;;;;5051801;28;20425;-78
2021/08/13 14:41:42;;;;;;;7.20;6.40;;;;;;;;;;5051050;28;20438;-81
2021/08/13 14:47:11;;;;;;;7.00;6.30;;;;;;;;;;5051341;28;21060;-81
2021/08/13 14:49:37;;;;;;;7.80;5.87;;;;;;;;;;5051485;28;20466;-82
2021/08/13 14:52:03;;;;;;;7.30;6.60;;;;;;;;;;5051786;28;20825;-81
2021/08/13 14:54:29;;;;;;;7.53;6.80;;;;;;;;;;5050088;28;20430;-82
2021/08/13 14:56:55;;;;;;;7.30;6.57;;;;;;;;;;5051312;28;20477;-81
2021/08/13 15:02:26;;;;;;;8.60;7.00;;;;;;;;;;5051351;28;20426;-82
2021/08/13 15:04:51;;;;;;;10.60;6.83;;;;;;;;;;5050976;28;20977;-77
2021/08/13 15:07:18;;;;;;;8.63;7.13;;;;;;;;;;5051069;28;20503;-80
2021/08/13 15:09:44;;;;;;;7.00;6.23;;;;;;;;;;5050082;28;20474;-80
2021/08/13 15:12:10;;;;;;;8.20;6.40;;;;;;;;;;5050705;28;20430;-83
2021/08/13 15:17:39;;;;;;;7.80;6.40;;;;;;;;;;5051097;28;20468;-75
2021/08/13 15:20:06;;;;;;;7.20;6.63;;;;;;;;;;5050918;28;20901;-77
2021/08/13 15:22:32;;;;;;;7.03;6.43;;;;;;;;;;5051024;28;20939;-77
2021/08/13 15:24:58;;;;;;;8.03;6.93;;;;;;;;;;5050933;28;20446;-80
2021/08/13 15:27:24;;;;;;;6.83;6.20;;;;;;;;;;5050895;28;20810;-78
2021/08/13 15:29:50;;;;;;;6.53;5.87;;;;;;;;;;5050799;28;20471;-81
2021/08/13 15:32:16;;;;;;;7.07;6.30;;;;;;;;;;5050951;28;20765;-81
2021/08/13 15:34:43;;;;;;;7.70;6.90;;;;;;;;;;5050776;28;20482;-80
2021/08/13 15:37:09;;;;;;;7.20;6.50;;;;;;;;;;5050940;28;20890;-81
2021/08/13 15:39:35;;;;;;;6.97;6.37;;;;;;;;;;5050593;28;20419;-79
2021/08/13 15:42:01;;;;;;;6.47;5.97;;;;;;;;;;5050554;28;20410;-79
2021/08/13 15:47:30;;;;;;;8.83;6.03;;;;;;;;;;5050745;28;20461;-80
2021/08/13 15:49:56;;;;;;;8.17;6.27;;;;;;;;;;5050486;28;20467;-80
2021/08/13 15:52:23;;;;;;;7.50;6.00;;;;;;;;;;5050826;28;20494;-78
2021/08/13 15:54:52;;;;;;;7.10;6.33;;;;;;;;;;5050898;28;20419;-76
2021/08/13 15:57:18;;;;;;;7.80;6.83;;;;;;;;;;5051468;28;20403;-77
2021/08/13 16:02:47;;;;;;;7.10;6.37;;;;;;;;;;5054476;28;20480;-75
2021/08/13 16:05:15;;;;;;;7.63;6.63;;;;;;;;;;5054345;28;20505;-79
2021/08/13 16:07:41;;;;;;;7.90;7.20;;;;;;;;;;5053224;28;20949;-75
2021/08/13 16:10:08;;;;;;;6.77;6.17;;;;;;;;;;5052755;28;20446;-80
2021/08/13 16:12:34;;;;;;;7.33;6.53;;;;;;;;;;5053567;28;20803;-78
2021/08/13 16:18:04;;;;;;;8.67;6.27;;;;;;;;;;5054199;28;20414;-79
2021/08/13 16:20:29;;;;;;;7.50;6.33;;;;;;;;;;5053997;28;20906;-75
2021/08/13 16:22:56;;;;;;;7.73;7.03;;;;;;;;;;5054333;28;20415;-76
2021/08/13 16:25:22;;;;;;;7.83;7.13;;;;;;;;;;5049454;28;20403;-79
2021/08/13 16:27:48;;;;;;;9.30;7.00;;;;;;;;;;5052561;28;20423;-74
2021/08/13 16:33:17;;;;;;;7.97;6.70;;;;;;;;;;5053916;28;20436;-77
2021/08/13 16:35:44;;;;;;;7.33;6.53;;;;;;;;;;5054046;28;20577;-80
2021/08/13 16:38:10;;;;;;;10.43;6.97;;;;;;;;;;5052622;28;20782;-82
2021/08/13 16:40:37;;;;;;;8.97;6.53;;;;;;;;;;5053670;28;20411;-76
2021/08/13 16:43:05;;;;;;;8.20;7.20;;;;;;;;;;5053522;28;20411;-80
2021/08/13 16:48:35;;;;;;;7.40;6.60;;;;;;;;;;5052484;28;20539;-79
2021/08/13 16:51:02;;;;;;;9.27;7.07;;;;;;;;;;5052597;28;20802;-85
2021/08/13 16:53:28;;;;;;;7.87;6.60;;;;;;;;;;5053141;28;20427;-77
2021/08/13 16:55:54;;;;;;;8.30;7.50;;;;;;;;;;5052758;28;20473;-76
2021/08/13 16:58:20;;;;;;;7.43;6.60;;;;;;;;;;5052899;28;20450;-78